createdAt,value
2019-02-16T00:00:12.183Z,23.03
2019-02-16T00:02:41.099Z,22.50
2019-02-16T00:05:10.131Z,31.80
2019-02-16T00:07:39.068Z,25.17
2019-02-16T00:10:08.089Z,21.97
2019-02-16T00:12:37.057Z,27.10
2019-02-16T00:15:06.296Z,23.47
2019-02-16T00:17:35.204Z,26.30
2019-02-16T00:20:04.334Z,22.37
2019-02-16T00:22:33.266Z,25.20
2019-02-16T00:25:02.346Z,26.27
2019-02-16T00:27:31.265Z,24.15
2019-02-16T00:30:00.359Z,25.63
2019-02-16T00:32:29.235Z,22.33
2019-02-16T00:34:58.078Z,19.60
2019-02-16T00:37:27.110Z,21.40
2019-02-16T00:39:56.132Z,27.80
2019-02-16T00:42:25.227Z,25.67
2019-02-16T00:44:54.123Z,32.30
2019-02-16T00:47:22.935Z,28.67
2019-02-16T00:49:51.851Z,24.30
2019-02-16T00:52:20.879Z,30.93
2019-02-16T00:54:49.787Z,22.87
2019-02-16T00:57:18.821Z,26.67
2019-02-16T00:59:47.755Z,23.43
2019-02-16T01:02:16.684Z,25.80
2019-02-16T01:04:45.657Z,26.03
2019-02-16T01:07:14.457Z,34.03
2019-02-16T01:09:43.421Z,29.80
2019-02-16T01:12:12.420Z,27.17
2019-02-16T01:14:41.368Z,26.57
2019-02-16T01:17:10.363Z,21.50
2019-02-16T01:19:39.352Z,22.47
2019-02-16T01:22:08.287Z,20.33
2019-02-16T01:24:37.304Z,22.53
2019-02-16T01:27:06.287Z,27.20
2019-02-16T01:29:35.228Z,22.50
2019-02-16T01:32:04.127Z,24.00
2019-02-16T01:34:33.095Z,22.60
2019-02-16T01:37:01.925Z,23.97
2019-02-16T01:39:30.946Z,25.77
2019-02-16T01:41:59.916Z,30.33
2019-02-16T01:44:28.842Z,30.17
2019-02-16T01:46:57.654Z,32.73
2019-02-16T01:49:26.683Z,30.53
2019-02-16T01:51:55.551Z,23.87
2019-02-16T01:54:24.377Z,29.50
2019-02-16T01:56:53.216Z,25.33
2019-02-16T01:59:22.122Z,23.33
2019-02-16T02:01:51.020Z,29.57
2019-02-16T02:04:19.909Z,48.10
2019-02-16T02:06:48.809Z,41.87
2019-02-16T02:09:17.725Z,29.97
2019-02-16T02:11:46.642Z,30.23
2019-02-16T02:14:15.548Z,25.40
2019-02-16T02:16:44.422Z,29.73
2019-02-16T02:19:13.305Z,22.57
2019-02-16T02:21:42.371Z,33.80
2019-02-16T02:24:12.976Z,31.87
2019-02-16T02:26:41.793Z,28.77
2019-02-16T02:29:10.748Z,34.33
2019-02-16T02:31:39.649Z,51.03
2019-02-16T02:34:08.649Z,31.80
2019-02-16T02:36:37.570Z,32.00
2019-02-16T02:39:07.038Z,33.53
2019-02-16T02:41:36.104Z,29.67
2019-02-16T02:44:05.063Z,26.37
2019-02-16T02:46:33.979Z,26.13
2019-02-16T02:49:04.105Z,23.60
2019-02-16T02:51:32.952Z,30.43
2019-02-16T02:54:01.834Z,29.33
2019-02-16T02:56:30.845Z,21.87
2019-02-16T02:58:59.702Z,33.77
2019-02-16T03:01:28.728Z,28.57
2019-02-16T03:03:57.612Z,27.13
2019-02-16T03:06:26.507Z,26.23
2019-02-16T03:08:55.411Z,31.48
2019-02-16T03:11:24.360Z,22.17
2019-02-16T03:13:53.167Z,29.40
2019-02-16T03:16:22.332Z,26.27
2019-02-16T03:18:51.279Z,24.00
2019-02-16T03:21:20.115Z,32.00
2019-02-16T03:23:49.075Z,26.67
2019-02-16T03:26:57.630Z,24.53
2019-02-16T03:29:57.431Z,32.30
2019-02-16T03:33:12.577Z,28.80
2019-02-16T03:36:30.286Z,29.17
2019-02-16T03:39:15.051Z,23.37
2019-02-16T03:41:43.967Z,29.97
2019-02-16T03:44:16.152Z,27.37
2019-02-16T03:46:45.149Z,30.83
2019-02-16T03:49:14.113Z,31.37
2019-02-16T03:51:42.892Z,27.50
2019-02-16T03:54:11.830Z,20.63
2019-02-16T03:56:40.806Z,27.23
2019-02-16T03:59:09.651Z,36.03
2019-02-16T04:01:38.648Z,26.80
2019-02-16T04:04:07.669Z,21.70
2019-02-16T04:06:36.446Z,28.27
2019-02-16T04:09:06.675Z,22.43
2019-02-16T04:11:35.695Z,30.03
2019-02-16T04:14:04.661Z,22.57
2019-02-16T04:16:33.576Z,24.93
2019-02-16T04:19:02.355Z,31.17
2019-02-16T04:21:31.323Z,29.90
2019-02-16T04:24:00.240Z,30.47
2019-02-16T04:26:29.252Z,29.60
2019-02-16T04:28:58.222Z,21.27
2019-02-16T04:31:27.207Z,23.67
2019-02-16T04:33:56.041Z,36.47
2019-02-16T04:36:24.998Z,24.83
2019-02-16T04:38:53.929Z,25.53
2019-02-16T04:41:23.068Z,28.60
2019-02-16T04:43:51.939Z,27.07
2019-02-16T04:46:20.830Z,31.97
2019-02-16T04:48:49.677Z,27.53
2019-02-16T04:51:18.550Z,23.80
2019-02-16T04:53:47.530Z,30.00
2019-02-16T04:56:16.665Z,24.87
2019-02-16T04:58:45.493Z,20.00
2019-02-16T05:01:14.464Z,20.90
2019-02-16T05:03:43.352Z,27.33
2019-02-16T05:06:12.306Z,25.17
2019-02-16T05:08:41.316Z,24.43
2019-02-16T05:11:10.294Z,25.27
2019-02-16T05:13:39.186Z,23.70
2019-02-16T05:16:08.175Z,26.50
2019-02-16T05:18:36.986Z,23.27
2019-02-16T05:21:05.876Z,25.80
2019-02-16T05:23:34.792Z,26.60
2019-02-16T05:26:03.783Z,24.90
2019-02-16T05:28:32.737Z,25.90
2019-02-16T05:31:01.645Z,24.20
2019-02-16T05:33:30.574Z,24.27
2019-02-16T05:35:59.575Z,25.03
2019-02-16T05:38:28.363Z,25.20
2019-02-16T05:40:57.270Z,22.73
2019-02-16T05:43:26.080Z,26.93
2019-02-16T05:45:55.013Z,21.30
2019-02-16T05:48:23.942Z,21.60
2019-02-16T05:50:52.877Z,27.87
2019-02-16T05:53:21.680Z,28.93
2019-02-16T05:55:50.590Z,29.90
2019-02-16T05:58:19.452Z,31.65
2019-02-16T06:00:48.411Z,39.17
2019-02-16T06:03:17.364Z,35.60
2019-02-16T06:05:46.270Z,30.07
2019-02-16T06:08:15.329Z,35.43
2019-02-16T06:10:44.275Z,25.33
2019-02-16T06:13:13.347Z,32.73
2019-02-16T06:15:42.337Z,22.90
2019-02-16T06:18:11.262Z,33.03
2019-02-16T06:20:40.051Z,33.37
2019-02-16T06:23:08.960Z,34.67
2019-02-16T06:25:37.977Z,33.87
2019-02-16T06:28:06.929Z,31.17
2019-02-16T06:30:35.839Z,26.47
2019-02-16T06:33:04.783Z,29.97
2019-02-16T06:35:38.171Z,34.70
2019-02-16T06:38:07.096Z,31.17
2019-02-16T06:40:36.009Z,32.33
2019-02-16T06:43:04.987Z,29.07
2019-02-16T06:45:33.955Z,27.60
2019-02-16T06:48:02.964Z,28.37
2019-02-16T06:50:36.921Z,29.37
2019-02-16T06:53:02.624Z,38.60
2019-02-16T06:55:39.752Z,30.77
2019-02-16T06:58:09.557Z,32.73
2019-02-16T07:00:38.394Z,26.07
2019-02-16T07:03:10.265Z,25.60
2019-02-16T07:05:39.198Z,25.77
2019-02-16T07:08:08.257Z,25.70
2019-02-16T07:10:37.218Z,32.23
2019-02-16T07:13:06.419Z,36.63
2019-02-16T07:15:35.305Z,23.83
2019-02-16T07:18:13.923Z,28.27
2019-02-16T07:20:42.935Z,28.80
2019-02-16T07:23:12.170Z,37.63
2019-02-16T07:25:40.974Z,27.17
2019-02-16T07:28:09.944Z,43.07
2019-02-16T07:30:38.873Z,46.73
2019-02-16T07:33:07.828Z,34.90
2019-02-16T07:35:36.895Z,29.27
2019-02-16T07:38:05.896Z,35.73
2019-02-16T07:40:34.859Z,36.33
2019-02-16T07:43:04.034Z,31.13
2019-02-16T07:46:10.385Z,28.13
2019-02-16T07:48:56.805Z,21.17
2019-02-16T07:51:56.532Z,24.30
2019-02-16T07:54:30.736Z,29.10
2019-02-16T07:57:07.212Z,23.67
2019-02-16T07:59:43.682Z,22.03
2019-02-16T08:02:31.608Z,33.83
2019-02-16T08:05:19.521Z,29.03
2019-02-16T08:08:02.874Z,34.97
2019-02-16T08:10:57.809Z,23.27
2019-02-16T08:13:40.991Z,20.30
2019-02-16T08:16:35.271Z,16.23
2019-02-16T08:19:23.266Z,23.57
2019-02-16T08:21:59.051Z,26.87
2019-02-16T08:24:45.736Z,23.03
2019-02-16T08:27:45.996Z,16.50
2019-02-16T08:30:49.317Z,19.57
2019-02-16T08:33:35.921Z,21.73
2019-02-16T08:36:20.763Z,21.90
2019-02-16T08:39:12.312Z,20.07
2019-02-16T08:42:06.481Z,15.90
2019-02-16T08:45:02.859Z,24.17
2019-02-16T08:47:41.115Z,23.53
2019-02-16T08:50:34.908Z,17.00
2019-02-16T08:53:19.467Z,15.77
2019-02-16T08:55:54.718Z,21.67
2019-02-16T08:58:57.904Z,20.90
2019-02-16T09:01:34.526Z,22.43
2019-02-16T09:04:22.563Z,22.50
2019-02-16T09:07:09.382Z,23.07
2019-02-16T09:09:56.012Z,19.37
2019-02-16T09:12:44.007Z,17.10
2019-02-16T09:15:42.097Z,20.77
2019-02-16T09:18:32.208Z,23.90
2019-02-16T09:21:15.119Z,20.13
2019-02-16T09:23:59.045Z,18.10
2019-02-16T09:26:45.340Z,24.63
2019-02-16T09:29:28.752Z,16.40
2019-02-16T09:32:19.671Z,15.80
2019-02-16T09:34:57.101Z,18.50
2019-02-16T09:37:43.716Z,30.10
2019-02-16T09:40:44.148Z,21.40
2019-02-16T09:43:30.985Z,20.80
2019-02-16T09:46:18.796Z,19.87
2019-02-16T09:48:58.816Z,18.13
2019-02-16T09:51:38.473Z,18.97
2019-02-16T09:54:20.915Z,20.57
2019-02-16T09:56:54.846Z,19.30
2019-02-16T09:59:45.761Z,25.00
2019-02-16T10:02:29.736Z,19.30
2019-02-16T10:05:18.225Z,20.77
2019-02-16T10:08:07.653Z,26.77
2019-02-16T10:10:54.252Z,24.70
2019-02-16T10:13:29.600Z,34.07
2019-02-16T10:16:25.674Z,19.50
2019-02-16T10:19:29.236Z,22.65
2019-02-16T10:22:20.357Z,20.50
2019-02-16T10:25:07.516Z,23.10
2019-02-16T10:27:53.944Z,16.43
2019-02-16T10:30:40.538Z,24.07
2019-02-16T10:33:28.444Z,23.50
2019-02-16T10:36:16.403Z,24.60
2019-02-16T10:39:08.303Z,18.43
2019-02-16T10:41:59.203Z,17.93
2019-02-16T10:44:40.648Z,17.00
2019-02-16T10:47:23.817Z,18.40
2019-02-16T10:50:12.857Z,24.00
2019-02-16T10:53:06.559Z,22.50
2019-02-16T10:56:00.298Z,22.17
2019-02-16T10:58:40.943Z,16.33
2019-02-16T11:01:34.633Z,22.20
2019-02-16T11:04:13.033Z,26.60
2019-02-16T11:07:01.036Z,26.73
2019-02-16T11:09:41.643Z,20.10
2019-02-16T11:12:38.967Z,25.27
2019-02-16T11:15:33.141Z,31.53
2019-02-16T11:18:26.232Z,25.20
2019-02-16T11:21:06.912Z,29.17
2019-02-16T11:23:58.196Z,24.23
2019-02-16T11:26:38.291Z,24.80
2019-02-16T11:29:25.077Z,23.17
2019-02-16T11:32:11.899Z,32.70
2019-02-16T11:34:49.593Z,20.70
2019-02-16T11:37:37.401Z,38.70
2019-02-16T11:40:18.611Z,32.00
2019-02-16T11:43:06.232Z,31.63
2019-02-16T11:45:53.097Z,23.77
2019-02-16T11:48:29.598Z,26.50
2019-02-16T11:51:36.028Z,24.17
2019-02-16T11:54:21.157Z,25.90
2019-02-16T11:57:02.615Z,27.33
2019-02-16T11:59:50.615Z,21.33
2019-02-16T12:02:40.016Z,22.83
2019-02-16T12:05:31.248Z,25.68
2019-02-16T12:08:14.527Z,26.33
2019-02-16T12:11:11.605Z,23.30
2019-02-16T12:13:55.938Z,21.87
2019-02-16T12:16:43.885Z,27.63
2019-02-16T12:19:29.198Z,23.40
2019-02-16T12:22:16.121Z,26.10
2019-02-16T12:25:08.558Z,27.70
2019-02-16T12:27:56.485Z,21.60
2019-02-16T12:30:36.229Z,25.30
2019-02-16T12:33:30.368Z,23.60
2019-02-16T12:36:18.269Z,20.70
2019-02-16T12:39:08.932Z,32.93
2019-02-16T12:41:56.876Z,28.90
2019-02-16T12:44:45.386Z,23.20
2019-02-16T12:47:32.088Z,26.20
2019-02-16T12:50:08.935Z,30.20
2019-02-16T12:53:00.263Z,24.63
2019-02-16T12:55:50.941Z,23.17
2019-02-16T12:58:34.448Z,26.17
2019-02-16T13:01:20.187Z,23.27
2019-02-16T13:04:14.159Z,25.27
2019-02-16T13:07:08.180Z,45.70
2019-02-16T13:09:55.136Z,26.23
2019-02-16T13:12:30.671Z,24.50
2019-02-16T13:15:19.242Z,27.00
2019-02-16T13:18:06.076Z,27.33
2019-02-16T13:20:44.884Z,29.50
2019-02-16T13:23:44.952Z,27.77
2019-02-16T13:26:20.156Z,21.63
2019-02-16T13:29:06.906Z,24.70
2019-02-16T13:31:43.994Z,24.18
2019-02-16T13:34:17.044Z,25.37
2019-02-16T13:36:57.297Z,25.20
2019-02-16T13:39:37.324Z,23.63
2019-02-16T13:42:12.203Z,25.37
2019-02-16T13:44:58.355Z,26.17
2019-02-16T13:47:45.903Z,22.80
2019-02-16T13:50:37.000Z,22.90
2019-02-16T13:53:23.703Z,29.17
2019-02-16T13:56:07.644Z,25.23
2019-02-16T13:58:53.564Z,22.13
2019-02-16T14:01:41.600Z,26.10
2019-02-16T14:04:35.569Z,27.37
2019-02-16T14:07:16.374Z,22.80
2019-02-16T14:10:22.618Z,26.00
2019-02-16T14:13:11.140Z,24.27
2019-02-16T14:15:58.456Z,25.97
2019-02-16T14:18:27.478Z,31.27
2019-02-16T14:20:56.473Z,24.17
2019-02-16T14:23:25.482Z,23.10
2019-02-16T14:25:54.477Z,25.77
2019-02-16T14:28:23.406Z,29.60
2019-02-16T14:30:52.354Z,20.83
2019-02-16T14:33:21.279Z,21.50
2019-02-16T14:35:50.954Z,22.10
2019-02-16T14:38:37.327Z,32.83
2019-02-16T14:41:06.231Z,23.97
2019-02-16T14:43:35.153Z,24.90
2019-02-16T14:46:04.217Z,22.70
2019-02-16T14:48:32.986Z,26.20
2019-02-16T14:51:01.925Z,24.18
2019-02-16T14:53:30.893Z,24.70
2019-02-16T14:55:59.777Z,23.77
2019-02-16T14:58:28.666Z,24.03
2019-02-16T15:00:57.691Z,26.37
2019-02-16T15:03:26.601Z,22.07
2019-02-16T15:05:55.494Z,21.53
2019-02-16T15:08:24.534Z,20.60
2019-02-16T15:10:53.378Z,26.60
2019-02-16T15:13:22.275Z,18.83
2019-02-16T15:15:51.103Z,23.67
2019-02-16T15:18:20.059Z,21.00
2019-02-16T15:20:48.900Z,25.30
2019-02-16T15:23:17.746Z,27.97
2019-02-16T15:25:46.643Z,22.33
2019-02-16T15:28:15.607Z,26.57
2019-02-16T15:30:44.467Z,26.17
2019-02-16T15:33:13.365Z,23.73
2019-02-16T15:35:42.367Z,22.30
2019-02-16T15:38:11.185Z,41.27
2019-02-16T15:40:40.089Z,26.37
2019-02-16T15:43:08.948Z,27.90
2019-02-16T15:45:37.892Z,27.97
2019-02-16T15:48:06.923Z,31.23
2019-02-16T15:50:35.953Z,24.90
2019-02-16T15:53:04.852Z,33.53
2019-02-16T15:55:33.745Z,30.47
2019-02-16T15:58:02.701Z,21.47
2019-02-16T16:00:31.758Z,32.20
2019-02-16T16:03:00.798Z,28.83
2019-02-16T16:05:29.686Z,27.10
2019-02-16T16:08:17.213Z,26.40
2019-02-16T16:11:26.332Z,20.47
2019-02-16T16:14:23.152Z,27.33
2019-02-16T16:17:09.997Z,22.07
2019-02-16T16:20:03.421Z,39.83
2019-02-16T16:22:57.373Z,45.53
2019-02-16T16:25:51.483Z,50.10
2019-02-16T16:28:42.506Z,44.60
2019-02-16T16:31:31.249Z,38.20
2019-02-16T16:34:11.794Z,33.63
2019-02-16T16:36:50.831Z,42.13
2019-02-16T16:39:44.923Z,43.87
2019-02-16T16:42:24.464Z,40.50
2019-02-16T16:45:04.730Z,42.43
2019-02-16T16:47:59.037Z,36.40
2019-02-16T16:50:49.992Z,45.47
2019-02-16T16:53:38.684Z,38.63
2019-02-16T16:56:28.606Z,40.00
2019-02-16T16:59:24.415Z,40.13
2019-02-16T17:02:02.766Z,50.47
2019-02-16T17:04:53.881Z,44.47
2019-02-16T17:07:29.338Z,55.37
2019-02-16T17:10:23.197Z,44.90
2019-02-16T17:13:01.422Z,42.80
2019-02-16T17:15:52.536Z,43.90
2019-02-16T17:18:28.294Z,39.30
2019-02-16T17:21:15.096Z,44.63
2019-02-16T17:23:59.759Z,44.00
2019-02-16T17:27:05.934Z,51.93
2019-02-16T17:29:52.467Z,37.57
2019-02-16T17:32:58.936Z,38.80
2019-02-16T17:35:49.446Z,36.57
2019-02-16T17:38:36.123Z,40.40
2019-02-16T17:41:22.892Z,32.40
2019-02-16T17:44:14.735Z,37.90
2019-02-16T17:47:01.788Z,41.93
2019-02-16T17:49:49.711Z,34.37
2019-02-16T17:52:36.359Z,45.27
2019-02-16T17:55:33.373Z,40.53
2019-02-16T17:58:24.273Z,39.63
2019-02-16T18:01:12.903Z,40.27
2019-02-16T18:04:09.586Z,39.50
2019-02-16T18:06:57.702Z,42.37
2019-02-16T18:09:44.539Z,38.10
2019-02-16T18:12:19.768Z,43.03
2019-02-16T18:14:58.780Z,42.60
2019-02-16T18:17:46.652Z,36.43
2019-02-16T18:20:24.610Z,52.73
2019-02-16T18:23:16.531Z,46.03
2019-02-16T18:25:53.967Z,48.77
2019-02-16T18:28:34.937Z,44.00
2019-02-16T18:31:22.858Z,44.50
2019-02-16T18:34:13.131Z,34.90
2019-02-16T18:36:59.389Z,60.77
2019-02-16T18:39:46.256Z,44.50
2019-02-16T18:42:32.821Z,52.40
2019-02-16T18:45:19.835Z,57.40
2019-02-16T18:48:06.739Z,47.80
2019-02-16T18:50:50.126Z,40.53
2019-02-16T18:53:47.187Z,44.50
2019-02-16T18:56:47.257Z,47.70
2019-02-16T18:59:44.403Z,60.17
2019-02-16T19:02:24.985Z,40.53
2019-02-16T19:05:01.466Z,42.63
2019-02-16T19:07:45.223Z,50.87
2019-02-16T19:10:22.719Z,53.33
2019-02-16T19:13:19.468Z,52.63
2019-02-16T19:16:04.519Z,55.60
2019-02-16T19:18:51.368Z,53.23
2019-02-16T19:21:34.544Z,58.23
2019-02-16T19:24:12.970Z,49.63
2019-02-16T19:26:59.827Z,52.93
2019-02-16T19:29:46.578Z,43.97
2019-02-16T19:32:46.475Z,47.90
2019-02-16T19:35:40.291Z,47.77
2019-02-16T19:38:20.323Z,53.03
2019-02-16T19:40:58.662Z,62.13
2019-02-16T19:43:39.701Z,47.27
2019-02-16T19:46:19.027Z,48.10
2019-02-16T19:49:13.312Z,50.10
2019-02-16T19:51:49.409Z,49.50
2019-02-16T19:54:46.452Z,40.00
2019-02-16T19:57:43.462Z,53.03
2019-02-16T20:00:27.184Z,46.40
2019-02-16T20:03:14.265Z,46.83
2019-02-16T20:06:04.970Z,46.60
2019-02-16T20:08:40.518Z,49.20
2019-02-16T20:11:27.035Z,52.87
2019-02-16T20:14:10.218Z,42.13
2019-02-16T20:17:04.256Z,48.80
2019-02-16T20:19:49.776Z,48.20
2019-02-16T20:22:36.277Z,52.60
2019-02-16T20:25:16.209Z,52.40
2019-02-16T20:28:06.705Z,56.53
2019-02-16T20:31:06.819Z,53.07
2019-02-16T20:33:57.974Z,58.67
2019-02-16T20:36:32.880Z,59.77
2019-02-16T20:39:19.646Z,56.60
2019-02-16T20:41:58.446Z,53.90
2019-02-16T20:45:01.491Z,53.47
2019-02-16T20:47:48.167Z,54.23
2019-02-16T20:50:52.133Z,46.47
2019-02-16T20:53:30.932Z,60.38
2019-02-16T20:56:17.901Z,53.77
2019-02-16T20:58:54.161Z,53.70
2019-02-16T21:01:54.356Z,65.63
2019-02-16T21:05:30.640Z,53.10
2019-02-16T21:08:33.916Z,49.73
2019-02-16T21:11:28.053Z,49.10
2019-02-16T21:14:34.640Z,48.65
2019-02-16T21:17:25.975Z,54.23
2019-02-16T21:20:03.707Z,64.73
2019-02-16T21:22:50.404Z,46.03
2019-02-16T21:25:36.866Z,58.17
2019-02-16T21:28:24.770Z,58.80
2019-02-16T21:31:18.295Z,57.07
2019-02-16T21:33:52.117Z,58.37
2019-02-16T21:36:42.923Z,54.93
2019-02-16T21:39:31.312Z,56.97
2019-02-16T21:42:07.339Z,63.80
2019-02-16T21:45:07.765Z,64.47
2019-02-16T21:48:01.678Z,54.73
2019-02-16T21:50:54.365Z,41.10
2019-02-16T21:53:45.340Z,51.10
2019-02-16T21:56:30.069Z,51.60
2019-02-16T21:59:24.581Z,52.23
2019-02-16T22:02:08.781Z,56.77
2019-02-16T22:04:56.682Z,53.60
2019-02-16T22:07:43.286Z,56.67
2019-02-16T22:10:31.279Z,55.13
2019-02-16T22:13:05.372Z,51.50
2019-02-16T22:15:34.642Z,59.27
2019-02-16T22:18:03.663Z,61.73
2019-02-16T22:20:32.557Z,49.23
2019-02-16T22:23:01.862Z,62.27
2019-02-16T22:25:30.849Z,60.07
2019-02-16T22:27:59.789Z,64.50
2019-02-16T22:30:28.890Z,64.77
2019-02-16T22:32:58.054Z,68.67
2019-02-16T22:35:28.729Z,56.90
2019-02-16T22:37:57.868Z,64.13
2019-02-16T22:40:26.779Z,69.10
2019-02-16T22:42:55.714Z,64.03
2019-02-16T22:45:24.679Z,58.27
2019-02-16T22:47:53.624Z,68.03
2019-02-16T22:50:22.513Z,58.80
2019-02-16T22:52:51.544Z,69.07
2019-02-16T22:55:20.635Z,58.63
2019-02-16T22:57:49.625Z,77.33
2019-02-16T23:00:37.607Z,66.57
2019-02-16T23:03:08.100Z,63.50
2019-02-16T23:05:37.012Z,64.90
2019-02-16T23:08:05.929Z,96.60
2019-02-16T23:10:34.886Z,66.27
2019-02-16T23:13:03.889Z,71.70
2019-02-16T23:15:32.850Z,73.93
2019-02-16T23:18:01.857Z,64.17
2019-02-16T23:20:30.884Z,56.97
2019-02-16T23:22:59.849Z,61.80
2019-02-16T23:25:28.840Z,66.67
2019-02-16T23:27:57.695Z,67.87
2019-02-16T23:30:26.700Z,56.27
2019-02-16T23:32:57.038Z,64.57
2019-02-16T23:35:26.194Z,64.27
2019-02-16T23:37:55.119Z,83.55
2019-02-16T23:40:23.962Z,77.70
2019-02-16T23:42:52.950Z,58.30
2019-02-16T23:45:21.812Z,55.60
2019-02-16T23:47:50.773Z,57.23
2019-02-16T23:50:19.641Z,70.30
2019-02-16T23:52:48.499Z,65.97
2019-02-16T23:55:17.464Z,64.00
2019-02-16T23:57:46.399Z,71.17
